EDDB Airport Information

Runway Information
Runway 07L Length 11811 ft width 148 ft
Elevation 144 ft Threshold ft Heading 69
Runway 25R Length 11811 ft Width 148 ft
Elevation 154 ft Threshold ft Heading 249
Runway 07R Length 13123 ft width 197 ft
Elevation 152 ft Threshold ft Heading 69
Runway 25L Length 13123 ft Width 197 ft
Elevation 149 ft Threshold ft Heading 249
Airport Frequencies
Type AFIS Name BERLIN INF Frequency 132.65 MHZ
Type APP Name BERLIN ARR Frequency 119.625 MHZ
Type ATIS Name ATIS Frequency 124.95 MHZ
Type DEP Name BERLIN DEP Frequency 120.625 MHZ
Type DIR Name BERLIN DIR Frequency 136.1 MHZ
Type GND Name GND Frequency 121.6 MHZ
Type INFO Name INFO Frequency 122.7 MHZ
Type TWR Name TWR Frequency 120.025 MHZ
Airport Navaids
Airport Weather Information & NOTAM
ADDS - METARS form results

(1408 UTC 11 August 2022)
Data provider http://aviationweather.gov/metar/data/
 
METAR text: EDDB 111350Z AUTO 10007KT 060V160 CAVOK 30/06 Q1022 NOSIG
Conditions at: EDDB (BERLIN/BRANDERNB, DE) observed 1350 UTC 11 August 2022
Temperature: 30.0°C (86°F)
Dewpoint: 6.0°C (43°F) [RH = 22%]
Pressure (altimeter): 30.18 inches Hg (1022.0 mb)
Winds: from the E (100 degrees) at 8 MPH (7 knots; 3.6 m/s)
Visibility: 6 or more miles (10+ km)
Ceiling: ceiling and visibility are OK
Clouds: unknown
Weather: no significant weather observed at this time

METAR text: EDDB 111320Z AUTO VRB09KT CAVOK 29/06 Q1022 NOSIG
Conditions at: EDDB (BERLIN/BRANDERNB, DE) observed 1320 UTC 11 August 2022
Temperature: 29.0°C (84°F)
Dewpoint: 6.0°C (43°F) [RH = 23%]
Pressure (altimeter): 30.18 inches Hg (1022.0 mb)
Winds: variable direction winds at 10 MPH (9 knots; 4.6 m/s)
Visibility: 6 or more miles (10+ km)
Ceiling: ceiling and visibility are OK
Clouds: unknown
Weather: no significant weather observed at this time

Forecast for: EDDB (BERLIN/BRANDERNB, DE)
Text: TAF EDDB 111100Z 1112/1212 08006KT CAVOK
Forecast period: 1200 UTC 11 August 2022 to 1200 UTC 12 August 2022
Forecast type: FROM: standard forecast or significant change
Winds: from the E (80 degrees) at 7 MPH (6 knots; 3.1 m/s)
Visibility: 6 or more miles (10+ km)
Ceiling: unknown
Clouds: missing
Weather: NSW  (no significant weather)